sensor_id;sensor_type;location;lat;lon;timestamp;P1;durP1;ratioP1;P2;durP2;ratioP2
39620;SDS011;25309;48.686;9.170;2023-08-06T00:02:09;7.53;;;5.50;;
39620;SDS011;25309;48.686;9.170;2023-08-06T00:04:36;6.03;;;4.80;;
39620;SDS011;25309;48.686;9.170;2023-08-06T00:07:03;5.60;;;4.57;;
39620;SDS011;25309;48.686;9.170;2023-08-06T00:09:31;6.73;;;5.23;;
39620;SDS011;25309;48.686;9.170;2023-08-06T00:11:58;6.87;;;4.70;;
39620;SDS011;25309;48.686;9.170;2023-08-06T00:14:25;7.67;;;5.00;;
39620;SDS011;25309;48.686;9.170;2023-08-06T00:16:53;4.87;;;4.00;;
39620;SDS011;25309;48.686;9.170;2023-08-06T00:19:20;4.20;;;3.63;;
39620;SDS011;25309;48.686;9.170;2023-08-06T00:21:47;4.33;;;3.20;;
39620;SDS011;25309;48.686;9.170;2023-08-06T00:24:14;4.73;;;3.40;;
39620;SDS011;25309;48.686;9.170;2023-08-06T00:26:41;7.07;;;3.40;;
39620;SDS011;25309;48.686;9.170;2023-08-06T00:29:08;4.03;;;3.00;;
39620;SDS011;25309;48.686;9.170;2023-08-06T00:31:35;4.47;;;3.10;;
39620;SDS011;25309;48.686;9.170;2023-08-06T00:34:03;6.37;;;3.30;;
39620;SDS011;25309;48.686;9.170;2023-08-06T00:36:30;3.33;;;2.87;;
39620;SDS011;25309;48.686;9.170;2023-08-06T00:38:57;4.63;;;3.20;;
39620;SDS011;25309;48.686;9.170;2023-08-06T00:41:24;4.40;;;3.10;;
39620;SDS011;25309;48.686;9.170;2023-08-06T00:43:51;3.83;;;3.20;;
39620;SDS011;25309;48.686;9.170;2023-08-06T00:46:18;4.67;;;3.37;;
39620;SDS011;25309;48.686;9.170;2023-08-06T00:48:45;5.00;;;3.83;;
39620;SDS011;25309;48.686;9.170;2023-08-06T00:51:14;4.50;;;3.50;;
39620;SDS011;25309;48.686;9.170;2023-08-06T00:53:42;4.43;;;3.20;;
39620;SDS011;25309;48.686;9.170;2023-08-06T00:56:10;4.53;;;3.20;;
39620;SDS011;25309;48.686;9.170;2023-08-06T00:58:37;3.77;;;3.30;;
39620;SDS011;25309;48.686;9.170;2023-08-06T01:01:05;3.70;;;3.30;;
39620;SDS011;25309;48.686;9.170;2023-08-06T01:03:32;4.00;;;3.00;;
39620;SDS011;25309;48.686;9.170;2023-08-06T01:05:59;4.80;;;3.53;;
39620;SDS011;25309;48.686;9.170;2023-08-06T01:08:30;5.37;;;3.93;;
39620;SDS011;25309;48.686;9.170;2023-08-06T01:11:08;4.17;;;3.30;;
39620;SDS011;25309;48.686;9.170;2023-08-06T01:13:45;4.23;;;3.50;;
39620;SDS011;25309;48.686;9.170;2023-08-06T01:16:15;4.07;;;3.20;;
39620;SDS011;25309;48.686;9.170;2023-08-06T01:18:45;3.90;;;3.37;;
39620;SDS011;25309;48.686;9.170;2023-08-06T01:21:17;4.03;;;3.03;;
39620;SDS011;25309;48.686;9.170;2023-08-06T01:23:45;3.87;;;2.77;;
39620;SDS011;25309;48.686;9.170;2023-08-06T01:26:14;3.47;;;2.80;;
39620;SDS011;25309;48.686;9.170;2023-08-06T01:28:47;3.23;;;2.57;;
39620;SDS011;25309;48.686;9.170;2023-08-06T01:31:19;3.43;;;2.87;;
39620;SDS011;25309;48.686;9.170;2023-08-06T01:33:50;3.63;;;2.30;;
39620;SDS011;25309;48.686;9.170;2023-08-06T01:36:20;3.50;;;2.70;;
39620;SDS011;25309;48.686;9.170;2023-08-06T01:38:48;4.13;;;3.00;;
39620;SDS011;25309;48.686;9.170;2023-08-06T01:41:17;4.10;;;2.50;;
39620;SDS011;25309;48.686;9.170;2023-08-06T01:43:44;4.30;;;2.80;;
39620;SDS011;25309;48.686;9.170;2023-08-06T01:46:11;3.93;;;2.60;;
39620;SDS011;25309;48.686;9.170;2023-08-06T01:48:38;3.70;;;2.33;;
39620;SDS011;25309;48.686;9.170;2023-08-06T01:51:05;4.40;;;2.90;;
39620;SDS011;25309;48.686;9.170;2023-08-06T01:53:34;4.53;;;2.93;;
39620;SDS011;25309;48.686;9.170;2023-08-06T01:56:01;4.00;;;2.80;;
39620;SDS011;25309;48.686;9.170;2023-08-06T01:58:28;3.57;;;2.63;;
39620;SDS011;25309;48.686;9.170;2023-08-06T02:00:55;3.20;;;2.73;;
39620;SDS011;25309;48.686;9.170;2023-08-06T02:03:23;3.33;;;2.80;;
39620;SDS011;25309;48.686;9.170;2023-08-06T02:05:50;4.20;;;2.70;;
39620;SDS011;25309;48.686;9.170;2023-08-06T02:08:20;4.83;;;2.77;;
39620;SDS011;25309;48.686;9.170;2023-08-06T02:10:49;5.47;;;3.00;;
39620;SDS011;25309;48.686;9.170;2023-08-06T02:13:16;3.33;;;2.60;;
39620;SDS011;25309;48.686;9.170;2023-08-06T02:15:43;2.93;;;2.63;;
39620;SDS011;25309;48.686;9.170;2023-08-06T02:18:10;3.50;;;2.97;;
39620;SDS011;25309;48.686;9.170;2023-08-06T02:20:37;4.87;;;3.40;;
39620;SDS011;25309;48.686;9.170;2023-08-06T02:23:04;5.40;;;3.70;;
39620;SDS011;25309;48.686;9.170;2023-08-06T02:25:31;3.87;;;3.20;;
39620;SDS011;25309;48.686;9.170;2023-08-06T02:28:00;4.33;;;3.13;;
39620;SDS011;25309;48.686;9.170;2023-08-06T02:30:27;3.57;;;2.80;;
39620;SDS011;25309;48.686;9.170;2023-08-06T02:32:54;5.03;;;3.10;;
39620;SDS011;25309;48.686;9.170;2023-08-06T02:35:21;5.07;;;3.57;;
39620;SDS011;25309;48.686;9.170;2023-08-06T02:37:48;4.90;;;2.90;;
39620;SDS011;25309;48.686;9.170;2023-08-06T02:40:15;4.63;;;2.60;;
39620;SDS011;25309;48.686;9.170;2023-08-06T02:42:44;3.33;;;2.20;;
39620;SDS011;25309;48.686;9.170;2023-08-06T02:45:12;4.10;;;2.40;;
39620;SDS011;25309;48.686;9.170;2023-08-06T02:47:39;4.90;;;2.27;;
39620;SDS011;25309;48.686;9.170;2023-08-06T02:50:06;3.30;;;2.43;;
39620;SDS011;25309;48.686;9.170;2023-08-06T02:52:34;3.73;;;2.17;;
39620;SDS011;25309;48.686;9.170;2023-08-06T02:55:01;4.03;;;2.07;;
39620;SDS011;25309;48.686;9.170;2023-08-06T02:57:30;3.57;;;2.10;;
39620;SDS011;25309;48.686;9.170;2023-08-06T02:59:57;3.53;;;2.27;;
39620;SDS011;25309;48.686;9.170;2023-08-06T03:02:25;5.17;;;2.27;;
39620;SDS011;25309;48.686;9.170;2023-08-06T03:05:13;3.70;;;2.37;;
39620;SDS011;25309;48.686;9.170;2023-08-06T03:07:43;3.50;;;2.20;;
39620;SDS011;25309;48.686;9.170;2023-08-06T03:10:19;3.37;;;2.20;;
39620;SDS011;25309;48.686;9.170;2023-08-06T03:12:49;4.83;;;2.30;;
39620;SDS011;25309;48.686;9.170;2023-08-06T03:15:18;3.93;;;2.10;;
39620;SDS011;25309;48.686;9.170;2023-08-06T03:17:48;5.27;;;1.87;;
39620;SDS011;25309;48.686;9.170;2023-08-06T03:20:19;3.47;;;2.30;;
39620;SDS011;25309;48.686;9.170;2023-08-06T03:22:46;2.80;;;1.80;;
39620;SDS011;25309;48.686;9.170;2023-08-06T03:25:13;4.27;;;2.10;;
39620;SDS011;25309;48.686;9.170;2023-08-06T03:27:44;4.20;;;2.40;;
39620;SDS011;25309;48.686;9.170;2023-08-06T03:30:13;3.17;;;1.77;;
39620;SDS011;25309;48.686;9.170;2023-08-06T03:32:40;4.27;;;1.90;;
39620;SDS011;25309;48.686;9.170;2023-08-06T03:35:09;3.23;;;2.00;;
39620;SDS011;25309;48.686;9.170;2023-08-06T03:37:35;3.00;;;1.90;;
39620;SDS011;25309;48.686;9.170;2023-08-06T03:40:03;3.63;;;2.00;;
39620;SDS011;25309;48.686;9.170;2023-08-06T03:42:32;3.97;;;2.13;;
39620;SDS011;25309;48.686;9.170;2023-08-06T03:44:59;2.67;;;1.90;;
39620;SDS011;25309;48.686;9.170;2023-08-06T03:47:26;2.90;;;1.70;;
39620;SDS011;25309;48.686;9.170;2023-08-06T03:49:53;4.93;;;2.20;;
39620;SDS011;25309;48.686;9.170;2023-08-06T03:52:22;3.77;;;2.10;;
39620;SDS011;25309;48.686;9.170;2023-08-06T03:54:49;3.20;;;2.13;;
39620;SDS011;25309;48.686;9.170;2023-08-06T03:57:17;2.90;;;1.90;;
39620;SDS011;25309;48.686;9.170;2023-08-06T03:59:44;2.80;;;1.80;;
39620;SDS011;25309;48.686;9.170;2023-08-06T04:02:22;4.60;;;1.90;;
39620;SDS011;25309;48.686;9.170;2023-08-06T04:04:49;5.03;;;2.07;;
39620;SDS011;25309;48.686;9.170;2023-08-06T04:07:16;3.23;;;1.80;;
39620;SDS011;25309;48.686;9.170;2023-08-06T04:09:52;4.10;;;2.10;;
39620;SDS011;25309;48.686;9.170;2023-08-06T04:12:20;2.87;;;1.60;;
39620;SDS011;25309;48.686;9.170;2023-08-06T04:14:48;2.80;;;1.73;;
39620;SDS011;25309;48.686;9.170;2023-08-06T04:17:16;2.83;;;1.70;;
39620;SDS011;25309;48.686;9.170;2023-08-06T04:19:43;2.97;;;1.90;;
39620;SDS011;25309;48.686;9.170;2023-08-06T04:22:10;4.30;;;2.10;;
39620;SDS011;25309;48.686;9.170;2023-08-06T04:24:37;3.23;;;1.80;;
39620;SDS011;25309;48.686;9.170;2023-08-06T04:27:05;3.20;;;1.60;;
39620;SDS011;25309;48.686;9.170;2023-08-06T04:29:32;2.90;;;1.67;;
39620;SDS011;25309;48.686;9.170;2023-08-06T04:31:59;3.20;;;2.03;;
39620;SDS011;25309;48.686;9.170;2023-08-06T04:34:26;3.07;;;1.53;;
39620;SDS011;25309;48.686;9.170;2023-08-06T04:36:53;3.83;;;2.07;;
39620;SDS011;25309;48.686;9.170;2023-08-06T04:39:20;2.73;;;1.60;;
39620;SDS011;25309;48.686;9.170;2023-08-06T04:41:47;2.43;;;1.57;;
39620;SDS011;25309;48.686;9.170;2023-08-06T04:44:16;3.07;;;1.60;;
39620;SDS011;25309;48.686;9.170;2023-08-06T04:46:43;2.83;;;1.70;;
39620;SDS011;25309;48.686;9.170;2023-08-06T04:49:10;2.70;;;1.80;;
39620;SDS011;25309;48.686;9.170;2023-08-06T04:51:37;2.87;;;1.70;;
39620;SDS011;25309;48.686;9.170;2023-08-06T04:54:04;2.07;;;1.70;;
39620;SDS011;25309;48.686;9.170;2023-08-06T04:56:31;2.17;;;1.60;;
39620;SDS011;25309;48.686;9.170;2023-08-06T04:58:58;2.43;;;1.60;;
39620;SDS011;25309;48.686;9.170;2023-08-06T05:01:27;2.97;;;1.80;;
39620;SDS011;25309;48.686;9.170;2023-08-06T05:03:55;4.93;;;1.50;;
39620;SDS011;25309;48.686;9.170;2023-08-06T05:06:22;2.73;;;1.50;;
39620;SDS011;25309;48.686;9.170;2023-08-06T05:08:49;2.17;;;1.10;;
39620;SDS011;25309;48.686;9.170;2023-08-06T05:11:15;2.67;;;1.43;;
39620;SDS011;25309;48.686;9.170;2023-08-06T05:13:42;4.97;;;1.60;;
39620;SDS011;25309;48.686;9.170;2023-08-06T05:16:09;3.43;;;1.30;;
39620;SDS011;25309;48.686;9.170;2023-08-06T05:18:38;2.80;;;1.27;;
39620;SDS011;25309;48.686;9.170;2023-08-06T05:21:05;2.47;;;1.30;;
39620;SDS011;25309;48.686;9.170;2023-08-06T05:23:32;2.17;;;1.10;;
39620;SDS011;25309;48.686;9.170;2023-08-06T05:25:59;2.90;;;1.20;;
39620;SDS011;25309;48.686;9.170;2023-08-06T05:28:26;2.23;;;0.90;;
39620;SDS011;25309;48.686;9.170;2023-08-06T05:30:53;2.10;;;1.13;;
39620;SDS011;25309;48.686;9.170;2023-08-06T05:33:20;1.17;;;0.97;;
39620;SDS011;25309;48.686;9.170;2023-08-06T05:35:50;1.33;;;0.80;;
39620;SDS011;25309;48.686;9.170;2023-08-06T05:38:17;2.20;;;0.90;;
39620;SDS011;25309;48.686;9.170;2023-08-06T05:40:44;1.57;;;0.90;;
39620;SDS011;25309;48.686;9.170;2023-08-06T05:43:11;1.87;;;0.83;;
39620;SDS011;25309;48.686;9.170;2023-08-06T05:45:38;1.83;;;1.00;;
39620;SDS011;25309;48.686;9.170;2023-08-06T05:48:05;2.60;;;0.90;;
39620;SDS011;25309;48.686;9.170;2023-08-06T05:50:32;1.23;;;0.83;;
39620;SDS011;25309;48.686;9.170;2023-08-06T05:53:00;2.10;;;0.63;;
39620;SDS011;25309;48.686;9.170;2023-08-06T05:55:27;1.83;;;0.83;;
39620;SDS011;25309;48.686;9.170;2023-08-06T05:57:54;1.60;;;0.87;;
39620;SDS011;25309;48.686;9.170;2023-08-06T06:00:21;2.83;;;0.90;;
39620;SDS011;25309;48.686;9.170;2023-08-06T06:02:49;1.53;;;0.93;;
39620;SDS011;25309;48.686;9.170;2023-08-06T06:05:16;1.33;;;1.00;;
39620;SDS011;25309;48.686;9.170;2023-08-06T06:07:43;2.13;;;0.93;;
39620;SDS011;25309;48.686;9.170;2023-08-06T06:10:11;2.83;;;0.90;;
39620;SDS011;25309;48.686;9.170;2023-08-06T06:12:38;2.07;;;0.97;;
39620;SDS011;25309;48.686;9.170;2023-08-06T06:15:07;1.63;;;0.73;;
39620;SDS011;25309;48.686;9.170;2023-08-06T06:17:35;1.67;;;0.90;;
39620;SDS011;25309;48.686;9.170;2023-08-06T06:20:02;1.97;;;0.90;;
39620;SDS011;25309;48.686;9.170;2023-08-06T06:22:30;2.07;;;1.10;;
39620;SDS011;25309;48.686;9.170;2023-08-06T06:24:57;2.93;;;0.90;;
39620;SDS011;25309;48.686;9.170;2023-08-06T06:27:25;3.13;;;1.00;;
39620;SDS011;25309;48.686;9.170;2023-08-06T06:29:52;2.73;;;0.70;;
39620;SDS011;25309;48.686;9.170;2023-08-06T06:32:21;1.23;;;0.77;;
39620;SDS011;25309;48.686;9.170;2023-08-06T06:34:48;2.30;;;0.77;;
39620;SDS011;25309;48.686;9.170;2023-08-06T06:37:15;1.43;;;0.83;;
39620;SDS011;25309;48.686;9.170;2023-08-06T06:39:42;2.47;;;0.77;;
39620;SDS011;25309;48.686;9.170;2023-08-06T06:42:10;1.50;;;0.90;;
39620;SDS011;25309;48.686;9.170;2023-08-06T06:44:44;3.23;;;0.93;;
39620;SDS011;25309;48.686;9.170;2023-08-06T06:47:11;2.00;;;0.90;;
39620;SDS011;25309;48.686;9.170;2023-08-06T06:49:38;2.23;;;0.80;;
39620;SDS011;25309;48.686;9.170;2023-08-06T06:52:05;1.70;;;0.80;;
39620;SDS011;25309;48.686;9.170;2023-08-06T06:54:32;1.47;;;0.70;;
39620;SDS011;25309;48.686;9.170;2023-08-06T06:57:00;1.60;;;0.70;;
39620;SDS011;25309;48.686;9.170;2023-08-06T06:59:26;0.80;;;0.80;;
39620;SDS011;25309;48.686;9.170;2023-08-06T07:01:55;2.17;;;0.80;;
39620;SDS011;25309;48.686;9.170;2023-08-06T07:04:22;1.50;;;0.70;;
39620;SDS011;25309;48.686;9.170;2023-08-06T07:06:49;2.07;;;0.80;;
39620;SDS011;25309;48.686;9.170;2023-08-06T07:09:18;1.37;;;0.60;;
39620;SDS011;25309;48.686;9.170;2023-08-06T07:11:45;0.90;;;0.50;;
39620;SDS011;25309;48.686;9.170;2023-08-06T07:14:12;0.80;;;0.70;;
39620;SDS011;25309;48.686;9.170;2023-08-06T07:16:40;1.00;;;0.60;;
39620;SDS011;25309;48.686;9.170;2023-08-06T07:19:09;1.77;;;0.70;;
39620;SDS011;25309;48.686;9.170;2023-08-06T07:21:36;1.10;;;0.50;;
39620;SDS011;25309;48.686;9.170;2023-08-06T07:24:03;0.53;;;0.40;;
39620;SDS011;25309;48.686;9.170;2023-08-06T07:26:30;0.37;;;0.37;;
39620;SDS011;25309;48.686;9.170;2023-08-06T07:28:57;0.50;;;0.40;;
39620;SDS011;25309;48.686;9.170;2023-08-06T07:31:24;0.40;;;0.33;;
39620;SDS011;25309;48.686;9.170;2023-08-06T07:33:52;1.27;;;0.50;;
39620;SDS011;25309;48.686;9.170;2023-08-06T07:36:20;0.57;;;0.37;;
39620;SDS011;25309;48.686;9.170;2023-08-06T07:38:47;0.57;;;0.30;;
39620;SDS011;25309;48.686;9.170;2023-08-06T07:41:17;2.90;;;0.50;;
39620;SDS011;25309;48.686;9.170;2023-08-06T07:43:44;1.23;;;0.30;;
39620;SDS011;25309;48.686;9.170;2023-08-06T07:46:11;1.10;;;0.17;;
39620;SDS011;25309;48.686;9.170;2023-08-06T07:48:39;0.40;;;0.10;;
39620;SDS011;25309;48.686;9.170;2023-08-06T07:51:06;0.30;;;0.20;;
39620;SDS011;25309;48.686;9.170;2023-08-06T07:53:35;0.33;;;0.20;;
39620;SDS011;25309;48.686;9.170;2023-08-06T07:56:02;0.43;;;0.10;;
39620;SDS011;25309;48.686;9.170;2023-08-06T07:58:29;0.50;;;0.20;;
39620;SDS011;25309;48.686;9.170;2023-08-06T08:00:56;0.20;;;0.20;;
39620;SDS011;25309;48.686;9.170;2023-08-06T08:03:23;0.10;;;0.10;;
39620;SDS011;25309;48.686;9.170;2023-08-06T08:05:50;1.60;;;0.20;;
39620;SDS011;25309;48.686;9.170;2023-08-06T08:08:22;0.10;;;0.10;;
39620;SDS011;25309;48.686;9.170;2023-08-06T08:10:51;0.80;;;0.20;;
39620;SDS011;25309;48.686;9.170;2023-08-06T08:13:18;0.50;;;0.17;;
39620;SDS011;25309;48.686;9.170;2023-08-06T08:15:45;0.90;;;0.20;;
39620;SDS011;25309;48.686;9.170;2023-08-06T08:18:12;0.30;;;0.30;;
39620;SDS011;25309;48.686;9.170;2023-08-06T08:20:39;0.37;;;0.10;;
39620;SDS011;25309;48.686;9.170;2023-08-06T08:23:06;0.37;;;0.20;;
39620;SDS011;25309;48.686;9.170;2023-08-06T08:25:32;0.07;;;0.03;;
39620;SDS011;25309;48.686;9.170;2023-08-06T08:28:02;0.30;;;0.10;;
39620;SDS011;25309;48.686;9.170;2023-08-06T08:30:28;1.27;;;0.20;;
39620;SDS011;25309;48.686;9.170;2023-08-06T08:32:56;0.10;;;0.10;;
39620;SDS011;25309;48.686;9.170;2023-08-06T08:35:23;1.03;;;0.10;;
39620;SDS011;25309;48.686;9.170;2023-08-06T08:37:50;0.20;;;0.20;;
39620;SDS011;25309;48.686;9.170;2023-08-06T08:40:17;0.87;;;0.20;;
39620;SDS011;25309;48.686;9.170;2023-08-06T08:42:44;0.20;;;0.20;;
39620;SDS011;25309;48.686;9.170;2023-08-06T08:45:13;0.10;;;0.10;;
39620;SDS011;25309;48.686;9.170;2023-08-06T08:47:41;0.30;;;0.20;;
39620;SDS011;25309;48.686;9.170;2023-08-06T08:50:14;0.30;;;0.10;;
39620;SDS011;25309;48.686;9.170;2023-08-06T08:52:41;0.47;;;0.20;;
39620;SDS011;25309;48.686;9.170;2023-08-06T08:55:11;0.40;;;0.30;;
39620;SDS011;25309;48.686;9.170;2023-08-06T08:57:40;1.13;;;0.17;;
39620;SDS011;25309;48.686;9.170;2023-08-06T09:00:07;2.27;;;0.10;;
39620;SDS011;25309;48.686;9.170;2023-08-06T09:02:36;0.30;;;0.10;;
39620;SDS011;25309;48.686;9.170;2023-08-06T09:05:06;0.57;;;0.20;;
39620;SDS011;25309;48.686;9.170;2023-08-06T09:07:35;0.10;;;0.10;;
39620;SDS011;25309;48.686;9.170;2023-08-06T09:10:07;0.10;;;0.10;;
39620;SDS011;25309;48.686;9.170;2023-08-06T09:12:37;0.10;;;0.10;;
39620;SDS011;25309;48.686;9.170;2023-08-06T09:15:04;0.10;;;0.10;;
39620;SDS011;25309;48.686;9.170;2023-08-06T09:17:32;0.10;;;0.10;;
39620;SDS011;25309;48.686;9.170;2023-08-06T09:20:00;0.30;;;0.10;;
39620;SDS011;25309;48.686;9.170;2023-08-06T09:22:36;0.30;;;0.20;;
39620;SDS011;25309;48.686;9.170;2023-08-06T09:25:03;0.40;;;0.10;;
39620;SDS011;25309;48.686;9.170;2023-08-06T09:27:35;0.23;;;0.20;;
39620;SDS011;25309;48.686;9.170;2023-08-06T09:30:03;0.13;;;0.10;;
39620;SDS011;25309;48.686;9.170;2023-08-06T09:32:43;0.20;;;0.20;;
39620;SDS011;25309;48.686;9.170;2023-08-06T09:35:16;0.10;;;0.10;;
39620;SDS011;25309;48.686;9.170;2023-08-06T09:37:43;0.40;;;0.30;;
39620;SDS011;25309;48.686;9.170;2023-08-06T09:40:24;0.30;;;0.10;;
39620;SDS011;25309;48.686;9.170;2023-08-06T09:42:52;0.20;;;0.20;;
39620;SDS011;25309;48.686;9.170;2023-08-06T09:45:20;0.37;;;0.17;;
39620;SDS011;25309;48.686;9.170;2023-08-06T09:47:48;0.60;;;0.13;;
39620;SDS011;25309;48.686;9.170;2023-08-06T09:50:17;0.27;;;0.23;;
39620;SDS011;25309;48.686;9.170;2023-08-06T09:52:45;0.10;;;0.03;;
39620;SDS011;25309;48.686;9.170;2023-08-06T09:55:14;0.10;;;0.10;;
39620;SDS011;25309;48.686;9.170;2023-08-06T09:57:41;0.10;;;0.10;;
39620;SDS011;25309;48.686;9.170;2023-08-06T10:00:09;0.43;;;0.27;;
39620;SDS011;25309;48.686;9.170;2023-08-06T10:02:40;0.40;;;0.40;;
39620;SDS011;25309;48.686;9.170;2023-08-06T10:05:08;0.40;;;0.10;;
39620;SDS011;25309;48.686;9.170;2023-08-06T10:07:36;0.13;;;0.10;;
39620;SDS011;25309;48.686;9.170;2023-08-06T10:10:06;0.43;;;0.23;;
39620;SDS011;25309;48.686;9.170;2023-08-06T10:12:34;0.10;;;0.00;;
39620;SDS011;25309;48.686;9.170;2023-08-06T10:15:06;0.10;;;0.10;;
39620;SDS011;25309;48.686;9.170;2023-08-06T10:17:37;0.20;;;0.10;;
39620;SDS011;25309;48.686;9.170;2023-08-06T10:20:16;0.10;;;0.10;;
39620;SDS011;25309;48.686;9.170;2023-08-06T10:22:46;0.20;;;0.03;;
39620;SDS011;25309;48.686;9.170;2023-08-06T10:25:25;0.20;;;0.10;;
39620;SDS011;25309;48.686;9.170;2023-08-06T10:27:56;1.37;;;0.20;;
39620;SDS011;25309;48.686;9.170;2023-08-06T10:30:24;0.83;;;0.10;;
39620;SDS011;25309;48.686;9.170;2023-08-06T10:32:52;0.10;;;0.10;;
39620;SDS011;25309;48.686;9.170;2023-08-06T10:35:36;0.10;;;0.10;;
39620;SDS011;25309;48.686;9.170;2023-08-06T10:38:05;0.10;;;0.10;;
39620;SDS011;25309;48.686;9.170;2023-08-06T10:40:35;0.57;;;0.10;;
39620;SDS011;25309;48.686;9.170;2023-08-06T10:43:03;0.10;;;0.10;;
39620;SDS011;25309;48.686;9.170;2023-08-06T10:45:34;0.20;;;0.20;;
39620;SDS011;25309;48.686;9.170;2023-08-06T10:48:01;0.20;;;0.10;;
39620;SDS011;25309;48.686;9.170;2023-08-06T10:50:29;0.43;;;0.30;;
39620;SDS011;25309;48.686;9.170;2023-08-06T10:52:57;0.30;;;0.20;;
39620;SDS011;25309;48.686;9.170;2023-08-06T10:55:32;0.63;;;0.30;;
39620;SDS011;25309;48.686;9.170;2023-08-06T10:57:59;0.60;;;0.20;;
39620;SDS011;25309;48.686;9.170;2023-08-06T11:00:26;0.30;;;0.30;;
39620;SDS011;25309;48.686;9.170;2023-08-06T11:02:53;0.10;;;0.10;;
39620;SDS011;25309;48.686;9.170;2023-08-06T11:05:21;0.40;;;0.23;;
39620;SDS011;25309;48.686;9.170;2023-08-06T11:07:48;0.23;;;0.20;;
39620;SDS011;25309;48.686;9.170;2023-08-06T11:10:18;0.50;;;0.20;;
39620;SDS011;25309;48.686;9.170;2023-08-06T11:12:45;0.30;;;0.20;;
39620;SDS011;25309;48.686;9.170;2023-08-06T11:15:12;0.30;;;0.20;;
39620;SDS011;25309;48.686;9.170;2023-08-06T11:17:40;0.37;;;0.13;;
39620;SDS011;25309;48.686;9.170;2023-08-06T11:20:08;0.10;;;0.10;;
39620;SDS011;25309;48.686;9.170;2023-08-06T11:22:36;0.50;;;0.20;;
39620;SDS011;25309;48.686;9.170;2023-08-06T11:25:05;0.33;;;0.30;;
39620;SDS011;25309;48.686;9.170;2023-08-06T11:27:34;0.23;;;0.20;;
39620;SDS011;25309;48.686;9.170;2023-08-06T11:30:01;1.67;;;0.60;;
39620;SDS011;25309;48.686;9.170;2023-08-06T11:32:29;0.50;;;0.50;;
39620;SDS011;25309;48.686;9.170;2023-08-06T11:34:56;1.37;;;0.50;;
39620;SDS011;25309;48.686;9.170;2023-08-06T11:37:23;0.60;;;0.50;;
39620;SDS011;25309;48.686;9.170;2023-08-06T11:39:51;1.10;;;0.53;;
39620;SDS011;25309;48.686;9.170;2023-08-06T11:42:19;0.57;;;0.57;;
39620;SDS011;25309;48.686;9.170;2023-08-06T11:44:47;0.50;;;0.50;;
39620;SDS011;25309;48.686;9.170;2023-08-06T11:47:15;0.50;;;0.50;;
39620;SDS011;25309;48.686;9.170;2023-08-06T11:49:44;0.47;;;0.47;;
39620;SDS011;25309;48.686;9.170;2023-08-06T11:52:15;0.60;;;0.60;;
39620;SDS011;25309;48.686;9.170;2023-08-06T11:54:46;0.50;;;0.50;;
39620;SDS011;25309;48.686;9.170;2023-08-06T11:57:14;0.70;;;0.40;;
39620;SDS011;25309;48.686;9.170;2023-08-06T11:59:43;0.63;;;0.37;;
39620;SDS011;25309;48.686;9.170;2023-08-06T12:02:13;0.60;;;0.50;;
39620;SDS011;25309;48.686;9.170;2023-08-06T12:04:59;1.13;;;0.60;;
39620;SDS011;25309;48.686;9.170;2023-08-06T12:07:28;0.50;;;0.50;;
39620;SDS011;25309;48.686;9.170;2023-08-06T12:09:55;0.50;;;0.50;;
39620;SDS011;25309;48.686;9.170;2023-08-06T12:12:23;0.47;;;0.40;;
39620;SDS011;25309;48.686;9.170;2023-08-06T12:14:51;0.50;;;0.50;;
39620;SDS011;25309;48.686;9.170;2023-08-06T12:17:18;1.27;;;0.50;;
39620;SDS011;25309;48.686;9.170;2023-08-06T12:19:45;1.07;;;0.50;;
39620;SDS011;25309;48.686;9.170;2023-08-06T12:22:13;0.97;;;0.50;;
39620;SDS011;25309;48.686;9.170;2023-08-06T12:24:41;0.93;;;0.53;;
39620;SDS011;25309;48.686;9.170;2023-08-06T12:27:08;0.80;;;0.70;;
39620;SDS011;25309;48.686;9.170;2023-08-06T12:29:35;1.13;;;0.57;;
39620;SDS011;25309;48.686;9.170;2023-08-06T12:32:05;0.70;;;0.67;;
39620;SDS011;25309;48.686;9.170;2023-08-06T12:34:32;1.17;;;0.33;;
39620;SDS011;25309;48.686;9.170;2023-08-06T12:37:16;0.87;;;0.60;;
39620;SDS011;25309;48.686;9.170;2023-08-06T12:39:43;0.63;;;0.50;;
39620;SDS011;25309;48.686;9.170;2023-08-06T12:42:10;0.50;;;0.50;;
39620;SDS011;25309;48.686;9.170;2023-08-06T12:44:37;0.63;;;0.40;;
39620;SDS011;25309;48.686;9.170;2023-08-06T12:47:06;0.70;;;0.53;;
39620;SDS011;25309;48.686;9.170;2023-08-06T12:49:33;1.13;;;0.60;;
39620;SDS011;25309;48.686;9.170;2023-08-06T12:52:00;0.67;;;0.60;;
39620;SDS011;25309;48.686;9.170;2023-08-06T12:54:27;0.80;;;0.50;;
39620;SDS011;25309;48.686;9.170;2023-08-06T12:56:54;1.23;;;0.70;;
39620;SDS011;25309;48.686;9.170;2023-08-06T12:59:22;1.27;;;0.80;;
39620;SDS011;25309;48.686;9.170;2023-08-06T13:01:49;0.60;;;0.60;;
39620;SDS011;25309;48.686;9.170;2023-08-06T13:04:17;1.00;;;0.63;;
39620;SDS011;25309;48.686;9.170;2023-08-06T13:06:48;1.13;;;0.67;;
39620;SDS011;25309;48.686;9.170;2023-08-06T13:09:15;1.80;;;0.90;;
39620;SDS011;25309;48.686;9.170;2023-08-06T13:11:42;1.07;;;0.77;;
39620;SDS011;25309;48.686;9.170;2023-08-06T13:14:13;0.60;;;0.60;;
39620;SDS011;25309;48.686;9.170;2023-08-06T13:16:41;1.07;;;0.60;;
39620;SDS011;25309;48.686;9.170;2023-08-06T13:19:09;0.60;;;0.60;;
39620;SDS011;25309;48.686;9.170;2023-08-06T13:21:58;0.80;;;0.50;;
39620;SDS011;25309;48.686;9.170;2023-08-06T13:24:30;0.50;;;0.50;;
39620;SDS011;25309;48.686;9.170;2023-08-06T13:26:57;1.27;;;0.70;;
39620;SDS011;25309;48.686;9.170;2023-08-06T13:29:24;1.03;;;0.90;;
39620;SDS011;25309;48.686;9.170;2023-08-06T13:31:52;1.30;;;0.77;;
39620;SDS011;25309;48.686;9.170;2023-08-06T13:34:19;1.17;;;0.63;;
39620;SDS011;25309;48.686;9.170;2023-08-06T13:36:46;0.70;;;0.67;;
39620;SDS011;25309;48.686;9.170;2023-08-06T13:39:15;0.80;;;0.60;;
39620;SDS011;25309;48.686;9.170;2023-08-06T13:41:43;1.03;;;0.50;;
39620;SDS011;25309;48.686;9.170;2023-08-06T13:44:10;0.87;;;0.83;;
39620;SDS011;25309;48.686;9.170;2023-08-06T13:46:40;1.13;;;0.50;;
39620;SDS011;25309;48.686;9.170;2023-08-06T13:49:08;0.60;;;0.60;;
39620;SDS011;25309;48.686;9.170;2023-08-06T13:51:35;0.43;;;0.43;;
39620;SDS011;25309;48.686;9.170;2023-08-06T13:54:02;0.77;;;0.50;;
39620;SDS011;25309;48.686;9.170;2023-08-06T13:56:31;0.53;;;0.50;;
39620;SDS011;25309;48.686;9.170;2023-08-06T13:58:59;0.63;;;0.53;;
39620;SDS011;25309;48.686;9.170;2023-08-06T14:01:26;1.13;;;0.60;;
39620;SDS011;25309;48.686;9.170;2023-08-06T14:04:12;1.53;;;0.50;;
39620;SDS011;25309;48.686;9.170;2023-08-06T14:06:39;0.90;;;0.50;;
39620;SDS011;25309;48.686;9.170;2023-08-06T14:09:06;1.30;;;0.60;;
39620;SDS011;25309;48.686;9.170;2023-08-06T14:11:35;0.60;;;0.57;;
39620;SDS011;25309;48.686;9.170;2023-08-06T14:14:02;0.63;;;0.60;;
39620;SDS011;25309;48.686;9.170;2023-08-06T14:16:29;0.93;;;0.60;;
39620;SDS011;25309;48.686;9.170;2023-08-06T14:18:56;0.50;;;0.50;;
39620;SDS011;25309;48.686;9.170;2023-08-06T14:21:23;1.60;;;0.53;;
39620;SDS011;25309;48.686;9.170;2023-08-06T14:23:50;0.83;;;0.60;;
39620;SDS011;25309;48.686;9.170;2023-08-06T14:26:17;0.53;;;0.50;;
39620;SDS011;25309;48.686;9.170;2023-08-06T14:28:46;1.30;;;0.57;;
39620;SDS011;25309;48.686;9.170;2023-08-06T14:31:13;0.60;;;0.60;;
39620;SDS011;25309;48.686;9.170;2023-08-06T14:33:40;0.70;;;0.70;;
39620;SDS011;25309;48.686;9.170;2023-08-06T14:36:07;1.73;;;0.70;;
39620;SDS011;25309;48.686;9.170;2023-08-06T14:38:34;0.77;;;0.60;;
39620;SDS011;25309;48.686;9.170;2023-08-06T14:41:19;1.23;;;0.67;;
39620;SDS011;25309;48.686;9.170;2023-08-06T14:43:47;1.17;;;0.70;;
39620;SDS011;25309;48.686;9.170;2023-08-06T14:46:14;1.50;;;0.87;;
39620;SDS011;25309;48.686;9.170;2023-08-06T14:48:41;1.17;;;0.80;;
39620;SDS011;25309;48.686;9.170;2023-08-06T14:51:08;1.87;;;0.90;;
39620;SDS011;25309;48.686;9.170;2023-08-06T14:53:35;1.87;;;0.80;;
39620;SDS011;25309;48.686;9.170;2023-08-06T14:56:02;1.70;;;1.00;;